Latest Weather Observations for Coondewanna

IDW60801

Issued at 4:32 pm WST Saturday 25 April 2015 (issued every 30 minutes, with the page automatically refreshed every 10 minutes)

About weather observations | Map of weather stations | Latest weather observations for WA | Other Formats
Station Details ID: 505051 Name: COONDEWANNA Lat: -22.96 Lon: 118.81 Height: 697.63 m
Data from the previous 72 hours. | See also: Recent months for locations in Western Australia
Date/Time
WST
Temp
°C
App
Temp
°C
Dew
Point
Rel
Hum
%
Delta-T
°C
Wind Press
QNH
hPa
Press
MSL
hPa
Rain
since 9 am
mm
Dir
 
Spd
km/h
Gust
km/h
Spd
kts
Gust
kts
25/04:30pm 22.1 19.1 7.9 40 7.7 ENE 13 20 7 11 1019.0 1014.6 0.0
25/04:00pm 22.5 18.2 7.1 37 8.2 ENE 19 24 10 13 1018.9 1014.5 0.0
25/03:30pm 22.9 18.0 7.0 36 8.5 E 22 30 12 16 1018.6 1014.2 0.0
25/03:00pm 22.5 17.9 6.7 36 8.4 E 20 28 11 15 1018.6 1014.2 0.0
25/02:30pm 22.6 17.7 6.8 36 8.4 ENE 22 32 12 17 1018.8 1014.4 0.0
25/02:00pm 22.0 17.6 7.4 39 7.8 ENE 20 30 11 16 1018.9 1014.5 0.0
25/01:30pm 22.4 17.1 7.0 37 8.2 E 24 32 13 17 1018.9 1014.5 0.0
25/01:00pm 22.5 17.3 7.1 37 8.2 E 24 32 13 17 1019.3 1015.0 0.0
25/12:30pm 21.6 16.4 7.4 40 7.6 E 24 35 13 19 1019.6 1015.3 0.0
25/12:00pm 21.5 16.2 7.0 39 7.7 E 24 33 13 18 1020.1 1015.7 0.0
25/11:30am 20.9 16.1 7.2 41 7.3 E 22 32 12 17 1020.5 1016.1 0.0
25/11:00am 20.3 15.0 7.0 42 7.0 E 24 33 13 18 1021.0 1016.7 0.0
25/10:30am 19.3 14.1 7.4 46 6.3 E 24 35 13 19 1021.4 1017.0 0.0
25/10:00am 18.5 12.9 7.3 48 5.8 E 26 33 14 18 1021.6 1017.2 0.0
25/09:30am 17.9 12.8 7.6 51 5.4 E 24 33 13 18 1021.8 1017.4 0.0
25/09:00am 16.7 11.9 7.4 54 4.8 E 22 35 12 19 1021.8 1017.4 0.0
25/08:30am 16.2 11.5 7.9 58 4.3 E 22 33 12 18 1021.8 1017.4 0.0
25/08:00am 15.2 10.4 7.5 60 4.0 E 22 33 12 18 1021.4 1017.0 0.0
25/07:30am 14.9 10.8 7.9 63 3.6 E 19 24 10 13 1020.8 1016.5 0.0
25/07:00am 14.1 11.5 7.6 65 3.3 E 11 19 6 10 1020.6 1016.3 0.0
25/06:30am 13.3 11.4 7.7 69 2.9 SSW 7 13 4 7 1020.4 1016.0 0.0
25/06:00am 13.7 10.7 7.7 67 3.1 E 13 19 7 10 1020.1 1015.7 0.0
25/05:30am 14.0 10.6 7.8 66 3.2 E 15 20 8 11 1020.0 1015.6 0.0
25/05:00am 14.2 11.6 7.7 65 3.3 ENE 11 19 6 10 1019.8 1015.4 0.0
25/04:30am 14.6 11.3 7.9 64 3.5 ENE 15 24 8 13 1019.5 1015.2 0.0
25/04:00am 14.8 11.8 7.8 63 3.6 E 13 20 7 11 1019.4 1015.1 0.0
25/03:30am 15.3 11.9 7.8 61 3.9 E 15 24 8 13 1019.1 1014.7 0.0
25/03:00am 15.6 12.2 7.6 59 4.1 E 15 20 8 11 1019.1 1014.7 0.0
25/02:30am 16.0 13.4 7.7 58 4.3 ENE 11 17 6 9 1019.1 1014.7 0.0
25/02:00am 15.8 14.2 7.8 59 4.2 NNW 6 9 3 5 1019.2 1014.8 0.0
25/01:30am 16.6 14.1 8.1 57 4.5 E 11 17 6 9 1019.2 1014.8 0.0
25/01:00am 16.8 13.5 8.0 56 4.6 E 15 26 8 14 1019.3 1015.0 0.0
25/12:30am 17.2 13.2 8.1 55 4.8 E 19 26 10 14 1019.5 1015.2 0.0
25/12:00am 17.4 13.1 8.0 54 4.9 E 20 28 11 15 1019.5 1015.2 0.0
 
Date/Time
WST
Temp
°C
App
Temp
°C
Dew
Point
Rel
Hum
%
Delta-T
°C
Wind Press
QNH
hPa
Press
MSL
hPa
Rain
since 9 am
mm
Dir
 
Spd
km/h
Gust
km/h
Spd
kts
Gust
kts
24/11:30pm 17.9 13.7 7.6 51 5.4 E 19 24 10 13 1019.6 1015.3 0.0
24/11:00pm 18.5 14.3 7.6 49 5.7 E 19 30 10 16 1019.8 1015.4 0.0
24/10:30pm 18.6 14.9 8.0 50 5.6 E 17 24 9 13 1019.5 1015.2 0.0
24/10:00pm 19.0 14.8 8.4 50 5.7 ESE 20 30 11 16 1019.5 1015.2 0.0
24/09:30pm 19.4 15.9 8.7 50 5.8 E 17 24 9 13 1019.8 1015.4 0.0
24/09:00pm 18.6 17.1 10.4 59 4.5 ESE 9 13 5 7 1019.9 1015.5 0.0
24/08:30pm 18.5 17.6 10.6 60 4.4 ESE 6 9 3 5 1019.9 1015.5 0.0
24/08:00pm 19.1 17.8 9.9 55 5.1 ESE 7 9 4 5 1019.5 1015.2 0.0
24/07:30pm 20.0 18.2 9.6 51 5.7 E 9 13 5 7 1019.2 1014.8 0.0
24/07:00pm 20.5 18.4 9.7 50 6.0 E 11 15 6 8 1019.1 1014.7 0.0
24/06:30pm 21.3 18.3 9.2 46 6.7 E 15 22 8 12 1019.0 1014.6 0.0
24/06:00pm 21.6 17.6 9.2 45 6.8 ESE 20 28 11 15 1018.6 1014.2 0.0
24/05:30pm 22.3 18.4 9.5 44 7.1 ESE 20 28 11 15 1018.1 1013.8 0.0
24/05:00pm 22.9 18.2 9.3 42 7.6 E 24 30 13 16 1017.9 1013.6 0.0
24/04:30pm 23.0 18.8 9.8 43 7.4 E 22 30 12 16 1017.7 1013.3 0.0
24/04:00pm 23.8 19.3 10.1 42 7.8 E 24 33 13 18 1017.7 1013.3 0.0
24/03:30pm 23.1 18.3 10.2 44 7.3 E 26 37 14 20 1017.7 1013.3 0.0
24/03:00pm 23.3 18.4 10.0 43 7.5 E 26 35 14 19 1017.7 1013.3 0.0
24/02:30pm 23.5 19.2 10.6 44 7.4 E 24 30 13 16 1017.6 1013.2 0.0
24/02:00pm 23.3 18.9 10.4 44 7.3 E 24 32 13 17 1017.8 1013.4 0.0
24/01:30pm 22.6 17.4 10.1 45 7.0 E 28 37 15 20 1017.7 1013.3 0.0
24/01:00pm 22.7 17.4 9.8 44 7.2 E 28 39 15 21 1017.9 1013.6 0.0
24/12:50pm 23.0 17.5 10.4 45 7.2 E 30 48 16 26 1017.7 1013.3 0.0
24/12:30pm 22.2 16.7 10.4 47 6.7 ENE 30 39 16 21 1018.1 1013.8 0.0
24/12:00pm 21.7 16.1 10.2 48 6.5 E 30 41 16 22 1018.6 1014.2 0.0
24/11:30am 21.3 16.1 10.2 49 6.2 E 28 39 15 21 1019.1 1014.7 0.0
24/11:00am 20.4 14.3 9.9 51 5.8 E 32 41 17 22 1019.3 1015.0 0.0
24/10:30am 20.4 14.4 10.2 52 5.7 ENE 32 39 17 21 1019.8 1015.4 0.0
24/10:00am 19.7 14.2 10.7 56 5.0 E 30 41 16 22 1020.1 1015.7 0.0
24/09:30am 18.2 12.4 9.5 57 4.7 E 30 39 16 21 1020.4 1016.0 0.0
24/09:00am 17.7 12.5 10.1 61 4.2 E 28 39 15 21 1020.2 1015.8 0.2
24/08:30am 16.7 11.8 9.9 64 3.7 E 26 35 14 19 1020.1 1015.7 0.2
24/08:00am 15.7 9.9 9.4 66 3.4 E 30 41 16 22 1020.0 1015.6 0.2
24/07:30am 15.2 11.8 9.3 68 3.1 E 17 24 9 13 1019.9 1015.5 0.2
24/07:00am 14.0 11.8 9.4 74 2.4 ESE 11 17 6 9 1019.6 1015.3 0.2
24/06:30am 12.3 12.2 9.3 82 1.6 CALM 0 0 0 0 1019.4 1015.1 0.2
24/06:00am 13.4 12.5 9.3 76 2.2 S 4 7 2 4 1019.2 1014.8 0.2
24/05:30am 13.4 12.0 9.5 77 2.1 SSE 7 11 4 6 1018.9 1014.5 0.2
24/05:00am 13.1 11.9 9.5 79 1.9 ESE 6 9 3 5 1018.6 1014.2 0.2
24/04:30am 13.3 11.9 9.5 78 2.0 ESE 7 11 4 6 1018.6 1014.2 0.2
24/04:00am 13.5 11.8 9.9 79 1.9 E 9 13 5 7 1018.6 1014.2 0.2
24/03:30am 13.7 12.0 9.9 78 2.0 ESE 9 13 5 7 1018.7 1014.3 0.2
24/03:00am 14.1 12.0 9.9 76 2.2 ESE 11 17 6 9 1019.0 1014.6 0.2
24/02:30am 14.6 12.6 10.0 74 2.5 ESE 11 17 6 9 1019.1 1014.7 0.2
24/02:00am 14.8 12.8 10.0 73 2.6 SE 11 19 6 10 1019.0 1014.6 0.2
24/01:30am 15.3 12.2 10.3 72 2.7 ESE 17 26 9 14 1018.9 1014.5 0.2
24/01:00am 15.5 12.8 10.5 72 2.7 SE 15 20 8 11 1018.9 1014.5 0.2
24/12:30am 15.7 13.2 10.9 73 2.6 SE 15 26 8 14 1019.2 1014.8 0.2
24/12:00am 15.6 13.9 11.2 75 2.4 SE 11 17 6 9 1019.4 1015.1 0.2
 
Date/Time
WST
Temp
°C
App
Temp
°C
Dew
Point
Rel
Hum
%
Delta-T
°C
Wind Press
QNH
hPa
Press
MSL
hPa
Rain
since 9 am
mm
Dir
 
Spd
km/h
Gust
km/h
Spd
kts
Gust
kts
23/11:30pm 15.6 12.4 11.2 75 2.4 ESE 19 26 10 14 1019.5 1015.2 0.2
23/11:00pm 15.5 13.0 11.1 75 2.4 E 15 22 8 12 1019.5 1015.2 0.2
23/10:30pm 15.5 13.0 11.1 75 2.4 ESE 15 20 8 11 1019.5 1015.2 0.2
23/10:00pm 16.0 13.5 11.2 73 2.7 ESE 15 20 8 11 1019.6 1015.3 0.2
23/09:30pm 16.0 13.2 11.2 73 2.7 ESE 17 24 9 13 1019.4 1015.1 0.2
23/09:00pm 16.2 13.0 11.2 72 2.8 ESE 19 26 10 14 1019.2 1014.8 0.2
23/08:30pm 16.5 13.3 11.2 71 3.0 SE 19 24 10 13 1019.2 1014.8 0.2
23/08:00pm 16.9 14.1 11.4 70 3.1 SE 17 24 9 13 1019.0 1014.6 0.2
23/07:30pm 17.2 14.6 11.9 71 3.0 SE 17 22 9 12 1018.6 1014.2 0.2
23/07:00pm 17.7 15.2 12.4 71 3.0 ESE 17 20 9 11 1018.3 1013.9 0.2
23/06:30pm 18.3 15.8 12.3 68 3.4 SE 17 24 9 13 1017.6 1013.2 0.2
23/06:00pm 19.0 16.2 12.5 66 3.8 SE 19 24 10 13 1017.3 1012.9 0.2
23/05:30pm 20.0 17.0 12.5 62 4.4 SE 20 28 11 15 1017.1 1012.7 0.2
23/05:00pm 20.8 16.9 12.2 58 5.0 SE 24 32 13 17 1016.7 1012.3 0.2
23/04:30pm 21.6 18.0 13.2 59 5.0 ESE 24 32 13 17 1016.4 1012.0 0.2
23/04:00pm 21.8 18.4 12.4 55 5.5 E 22 28 12 15 1016.2 1011.8 0.2
23/03:30pm 22.0 19.2 13.1 57 5.3 ESE 20 28 11 15 1016.1 1011.7 0.2
23/03:00pm 21.9 18.4 12.2 54 5.6 ESE 22 41 12 22 1016.2 1011.8 0.2
23/02:30pm 21.2 18.2 11.8 55 5.4 SE 19 28 10 15 1016.2 1011.8 0.2
23/02:00pm 21.4 18.7 12.8 58 5.0 ESE 19 26 10 14 1016.0 1011.6 0.2
23/01:30pm 20.8 18.1 13.5 63 4.3 ESE 20 28 11 15 1016.2 1011.8 0.2
23/01:00pm 20.5 18.1 13.7 65 4.0 SE 19 24 10 13 1016.7 1012.3 0.2
23/12:30pm 20.3 18.5 12.0 59 4.8 E 13 20 7 11 1017.1 1012.7 0.2
23/12:00pm 19.6 17.9 12.4 63 4.2 E 13 24 7 13 1017.3 1012.9 0.2
23/11:30am 17.2 17.0 10.6 65 3.7 SE 2 7 1 4 1017.7 1013.3 0.2
23/11:00am 16.3 14.7 10.2 67 3.3 ESE 9 11 5 6 1018.5 1014.1 0.2
23/10:30am 15.4 12.5 9.5 68 3.2 ENE 15 20 8 11 1019.0 1014.6 0.2
23/10:00am 14.7 11.0 9.3 70 2.9 E 19 24 10 13 1019.1 1014.7 0.2
23/09:30am 14.0 9.9 8.8 71 2.7 E 20 26 11 14 1019.1 1014.7 0.2
23/09:00am 13.5 9.7 9.0 74 2.4 E 19 26 10 14 1019.0 1014.6 1.6
23/08:30am 13.2 9.7 8.9 75 2.2 E 17 24 9 13 1019.0 1014.6 1.6
23/08:00am 12.9 9.8 8.8 76 2.1 ENE 15 19 8 10 1018.7 1014.3 1.6
23/07:30am 12.5 10.1 8.8 78 1.9 E 11 17 6 9 1018.5 1014.1 1.6
23/07:00am 12.3 9.6 9.0 80 1.7 E 13 17 7 9 1018.1 1013.8 1.6
23/06:30am 12.1 10.2 8.9 81 1.7 E 9 13 5 7 1018.0 1013.7 1.6
23/06:00am 12.1 10.3 9.3 83 1.5 ESE 9 13 5 7 1017.8 1013.4 1.6
23/05:30am 12.0 11.1 9.4 84 1.4 ESE 4 9 2 5 1017.5 1013.1 1.6
23/05:00am 11.9 10.1 9.5 85 1.3 E 9 11 5 6 1017.4 1013.0 1.6
23/04:30am 11.7 9.6 9.8 88 1.0 ENE 11 17 6 9 1017.1 1012.7 1.6
23/04:00am 11.4 8.9 9.7 89 0.9 ENE 13 20 7 11 1016.9 1012.5 1.6
23/03:30am 11.4 9.3 9.8 90 0.8 ENE 11 17 6 9 1016.9 1012.5 1.6
23/03:00am 11.3 9.3 10.0 92 0.7 ENE 11 13 6 7 1017.1 1012.7 1.6
23/02:55am 11.3 9.3 10.0 92 0.7 ENE 11 15 6 8 1017.1 1012.7 1.6
23/02:41am 11.3 10.1 10.2 93 0.6 ENE 7 11 4 6 1017.3 1012.9 1.6
23/02:30am 11.3 9.6 10.0 92 0.7 ENE 9 13 5 7 1017.2 1012.8 1.6
23/02:09am 11.3 8.9 10.0 92 0.7 E 13 17 7 9 1017.3 1012.9 1.6
23/02:00am 11.3 9.2 9.9 91 0.7 E 11 17 6 9 1017.3 1012.9 1.6
23/01:30am 11.3 9.2 9.9 91 0.7 E 11 15 6 8 1017.5 1013.1 1.6
23/01:00am 11.3 8.1 9.9 91 0.7 ENE 17 20 9 11 1017.7 1013.3 1.6
23/12:30am 11.2 8.8 10.1 93 0.6 E 13 20 7 11 1017.8 1013.4 1.6
23/12:00am 11.3 8.2 10.2 93 0.6 E 17 24 9 13 1017.9 1013.6 1.6
 
Date/Time
WST
Temp
°C
App
Temp
°C
Dew
Point
Rel
Hum
%
Delta-T
°C
Wind Press
QNH
hPa
Press
MSL
hPa
Rain
since 9 am
mm
Dir
 
Spd
km/h
Gust
km/h
Spd
kts
Gust
kts
22/11:30pm 11.2 8.0 10.1 93 0.6 E 17 24 9 13 1018.1 1013.8 1.6
22/11:00pm 11.5 8.7 10.1 91 0.7 ESE 15 20 8 11 1018.3 1013.9 1.6
22/10:30pm 11.4 8.2 10.0 91 0.7 ESE 17 24 9 13 1018.4 1014.0 1.6
22/10:00pm 11.4 7.8 10.0 91 0.7 E 19 28 10 15 1018.7 1014.3 1.6
22/09:30pm 11.4 7.8 9.8 90 0.8 E 19 24 10 13 1018.6 1014.2 1.6
22/09:00pm 11.3 7.5 9.9 91 0.7 E 20 28 11 15 1018.4 1014.0 1.6
22/08:30pm 11.3 7.7 9.7 90 0.8 E 19 24 10 13 1018.5 1014.1 1.6
22/08:00pm 11.3 6.7 9.6 89 0.9 E 24 33 13 18 1018.4 1014.0 1.6
22/07:30pm 11.4 7.6 9.8 90 0.8 ESE 20 30 11 16 1018.4 1014.0 1.6
22/07:00pm 11.4 7.7 10.0 91 0.7 ESE 20 28 11 15 1018.0 1013.7 1.6
22/06:30pm 11.3 7.5 9.9 91 0.7 ESE 20 28 11 15 1017.7 1013.3 1.6
22/06:00pm 11.6 7.9 10.0 90 0.8 ESE 20 28 11 15 1017.6 1013.2 1.6
22/05:30pm 11.5 7.7 9.9 90 0.8 ESE 20 28 11 15 1017.3 1012.9 1.6
22/05:00pm 11.6 7.8 9.9 89 0.9 ESE 20 28 11 15 1017.1 1012.7 1.6

Other Formats:

Comma delimited format used in spreadsheet applications
http://www.bom.gov.au/fwo/IDW60801/IDW60801.99312.axf

JavaScript Object Notation format (JSON) in row-major order
http://www.bom.gov.au/fwo/IDW60801/IDW60801.99312.json